createdAt,value
2022-11-10T00:00:56.752Z,87.50
2022-11-10T00:03:43.117Z,87.40
2022-11-10T00:06:30.070Z,87.50
2022-11-10T00:09:17.091Z,87.60
2022-11-10T00:12:03.980Z,87.70
2022-11-10T00:15:09.523Z,87.60
2022-11-10T00:17:56.114Z,87.40
2022-11-10T00:20:43.315Z,87.30
2022-11-10T00:23:30.424Z,87.10
2022-11-10T00:26:19.180Z,86.80
2022-11-10T00:29:06.096Z,86.90
2022-11-10T00:31:54.712Z,86.40
2022-11-10T00:34:41.467Z,86.30
2022-11-10T00:37:28.022Z,86.40
2022-11-10T00:40:14.855Z,86.50
2022-11-10T00:43:01.386Z,86.70
2022-11-10T00:45:48.807Z,86.60
2022-11-10T00:48:37.291Z,86.60
2022-11-10T00:51:26.560Z,87.30
2022-11-10T00:54:13.429Z,86.10
2022-11-10T00:57:00.126Z,86.50
2022-11-10T00:59:47.131Z,86.40
2022-11-10T01:02:34.066Z,86.00
2022-11-10T01:05:23.231Z,86.50
2022-11-10T01:08:11.058Z,87.10
2022-11-10T01:11:03.763Z,87.80
2022-11-10T01:13:52.318Z,87.30
2022-11-10T01:16:38.956Z,87.90
2022-11-10T01:19:25.742Z,88.60
2022-11-10T01:22:13.670Z,89.40
2022-11-10T01:25:00.816Z,88.60
2022-11-10T01:27:47.755Z,88.70
2022-11-10T01:30:34.751Z,88.60
2022-11-10T01:33:22.161Z,88.30
2022-11-10T01:36:11.079Z,88.50
2022-11-10T01:38:59.386Z,88.50
2022-11-10T01:41:45.942Z,88.40
2022-11-10T01:44:33.194Z,87.90
2022-11-10T01:47:20.136Z,87.50
2022-11-10T01:50:08.326Z,88.00
2022-11-10T01:52:58.812Z,86.60
2022-11-10T01:55:49.105Z,86.10
2022-11-10T01:58:40.218Z,85.60
2022-11-10T02:01:27.505Z,85.60
2022-11-10T02:04:17.518Z,85.50
2022-11-10T02:07:04.353Z,85.70
2022-11-10T02:09:51.189Z,86.50
2022-11-10T02:12:39.785Z,86.20
2022-11-10T02:15:27.243Z,86.90
2022-11-10T02:18:14.372Z,87.20
2022-11-10T02:21:05.758Z,87.50
2022-11-10T02:23:53.941Z,87.40
2022-11-10T02:26:44.750Z,87.30
2022-11-10T02:29:31.700Z,87.50
2022-11-10T02:32:18.591Z,87.40
2022-11-10T02:35:06.307Z,87.50
2022-11-10T02:37:54.364Z,87.80
2022-11-10T02:40:41.373Z,88.60
2022-11-10T02:43:28.350Z,87.70
2022-11-10T02:46:15.122Z,87.50
2022-11-10T02:49:02.159Z,87.50
2022-11-10T02:51:48.983Z,87.00
2022-11-10T02:54:37.330Z,86.60
2022-11-10T02:57:24.204Z,86.60
2022-11-10T03:00:12.170Z,86.20
2022-11-10T03:02:59.204Z,86.40
2022-11-10T03:05:45.879Z,86.60
2022-11-10T03:08:33.021Z,86.40
2022-11-10T03:11:21.159Z,86.50
2022-11-10T03:14:08.099Z,86.10
2022-11-10T03:16:54.961Z,85.70
2022-11-10T03:19:41.773Z,85.10
2022-11-10T03:22:28.827Z,84.60
2022-11-10T03:25:15.602Z,85.10
2022-11-10T03:28:03.859Z,84.30
2022-11-10T03:30:50.740Z,84.30
2022-11-10T03:33:38.000Z,85.00
2022-11-10T03:36:24.551Z,84.60
2022-11-10T03:39:11.543Z,84.80
2022-11-10T03:41:58.396Z,84.90
2022-11-10T03:44:46.478Z,85.00
2022-11-10T03:47:34.431Z,85.00
2022-11-10T03:50:20.945Z,84.70
2022-11-10T03:53:07.804Z,84.60
2022-11-10T03:55:54.703Z,84.80
2022-11-10T03:58:42.282Z,85.00
2022-11-10T04:01:30.427Z,85.40
2022-11-10T04:04:31.055Z,85.70
2022-11-10T04:07:35.332Z,85.80
2022-11-10T04:10:22.195Z,85.90
2022-11-10T04:13:26.717Z,85.90
2022-11-10T04:16:13.994Z,86.10
2022-11-10T04:19:02.057Z,86.70
2022-11-10T04:21:49.183Z,86.60
2022-11-10T04:24:35.946Z,86.20
2022-11-10T04:27:22.866Z,86.00
2022-11-10T04:30:10.751Z,85.50
2022-11-10T04:32:57.674Z,84.80
2022-11-10T04:35:45.709Z,84.10
2022-11-10T04:38:32.568Z,83.60
2022-11-10T04:41:19.795Z,83.50
2022-11-10T04:44:06.749Z,82.40
2022-11-10T04:46:53.685Z,82.30
2022-11-10T04:49:40.189Z,82.10
2022-11-10T04:52:28.889Z,81.70
2022-11-10T04:55:16.347Z,81.10
2022-11-10T04:58:03.507Z,81.00
2022-11-10T05:00:50.245Z,81.00
2022-11-10T05:03:36.707Z,80.80
2022-11-10T05:06:23.618Z,80.80
2022-11-10T05:09:12.123Z,81.50
2022-11-10T05:11:58.683Z,80.80
2022-11-10T05:14:45.627Z,80.70
2022-11-10T05:17:32.669Z,81.30
2022-11-10T05:20:20.090Z,81.10
2022-11-10T05:23:24.361Z,81.60
2022-11-10T05:26:14.633Z,81.50
2022-11-10T05:29:01.426Z,81.20
2022-11-10T05:31:51.552Z,80.20
2022-11-10T05:34:38.352Z,80.90
2022-11-10T05:37:24.856Z,80.00
2022-11-10T05:40:12.567Z,79.60
2022-11-10T05:43:01.051Z,79.30
2022-11-10T05:45:47.903Z,79.20
2022-11-10T05:48:34.883Z,80.40
2022-11-10T05:51:21.686Z,78.80
2022-11-10T05:54:08.994Z,78.90
2022-11-10T05:56:55.542Z,77.80
2022-11-10T05:59:44.054Z,77.60
2022-11-10T06:02:30.871Z,77.80
2022-11-10T06:05:17.541Z,78.00
2022-11-10T06:08:05.923Z,78.70
2022-11-10T06:10:53.765Z,78.60
2022-11-10T06:13:40.389Z,78.10
2022-11-10T06:16:28.685Z,79.40
2022-11-10T06:19:15.599Z,78.40
2022-11-10T06:22:07.504Z,79.30
2022-11-10T06:24:54.873Z,80.40
2022-11-10T06:27:45.583Z,80.10
2022-11-10T06:30:34.429Z,80.40
2022-11-10T06:33:23.101Z,80.20
2022-11-10T06:36:10.847Z,80.40
2022-11-10T06:38:57.728Z,80.60
2022-11-10T06:41:44.657Z,80.80
2022-11-10T06:44:31.687Z,80.50
2022-11-10T06:47:19.629Z,80.30
2022-11-10T06:50:10.131Z,80.30
2022-11-10T06:52:57.012Z,80.10
2022-11-10T06:55:43.753Z,80.70
2022-11-10T06:58:30.685Z,80.20
2022-11-10T07:01:22.088Z,79.60
2022-11-10T07:04:24.594Z,79.40
2022-11-10T07:07:14.276Z,79.30
2022-11-10T07:10:06.509Z,79.30
2022-11-10T07:12:58.619Z,79.10
2022-11-10T07:15:45.265Z,79.60
2022-11-10T07:18:31.899Z,80.30
2022-11-10T07:21:18.783Z,81.40
2022-11-10T07:24:08.286Z,82.30
2022-11-10T07:26:55.015Z,83.00
2022-11-10T07:29:41.750Z,83.10
2022-11-10T07:32:28.503Z,84.40
2022-11-10T07:35:15.430Z,85.80
2022-11-10T07:38:05.545Z,86.60
2022-11-10T07:40:54.724Z,86.50
2022-11-10T07:43:41.503Z,87.60
2022-11-10T07:46:29.056Z,88.80
2022-11-10T07:49:16.582Z,89.80
2022-11-10T07:52:03.355Z,89.50
2022-11-10T07:54:50.514Z,88.90
2022-11-10T07:57:38.781Z,89.60
2022-11-10T08:00:25.758Z,89.10
2022-11-10T08:03:14.008Z,88.80
2022-11-10T08:06:00.994Z,89.10
2022-11-10T08:08:48.415Z,91.10
2022-11-10T08:11:35.335Z,89.70
2022-11-10T08:14:23.589Z,89.30
2022-11-10T08:17:10.462Z,89.90
2022-11-10T08:19:57.287Z,91.40
2022-11-10T08:22:44.608Z,91.10
2022-11-10T08:25:35.344Z,91.40
2022-11-10T08:28:22.525Z,91.90
2022-11-10T08:31:10.786Z,92.10
2022-11-10T08:33:57.167Z,92.00
2022-11-10T08:36:44.368Z,92.10
2022-11-10T08:39:38.917Z,91.60
2022-11-10T08:42:26.344Z,92.50
2022-11-10T08:45:13.209Z,93.70
2022-11-10T08:48:03.162Z,94.70
2022-11-10T08:50:51.689Z,95.10
2022-11-10T08:53:38.591Z,95.70
2022-11-10T08:56:25.323Z,95.50
2022-11-10T08:59:12.344Z,95.70
2022-11-10T09:01:59.550Z,95.50
2022-11-10T09:04:48.101Z,94.70
2022-11-10T09:07:44.229Z,96.10
2022-11-10T09:10:31.573Z,97.60
2022-11-10T09:13:19.044Z,97.30
2022-11-10T09:16:07.193Z,98.00
2022-11-10T09:18:54.133Z,98.10
2022-11-10T09:21:42.242Z,97.00
2022-11-10T09:24:31.442Z,96.70
2022-11-10T09:27:18.694Z,96.90
2022-11-10T09:30:07.205Z,97.30
2022-11-10T09:32:55.594Z,97.80
2022-11-10T09:35:42.989Z,97.40
2022-11-10T09:38:31.065Z,96.40
2022-11-10T09:41:19.253Z,95.50
2022-11-10T09:44:10.342Z,95.00
2022-11-10T09:47:01.677Z,94.20
2022-11-10T09:49:52.987Z,93.80
2022-11-10T09:52:42.515Z,92.70
2022-11-10T09:55:38.331Z,92.50
2022-11-10T09:58:29.403Z,92.50
2022-11-10T10:01:27.807Z,91.90
2022-11-10T10:04:29.244Z,90.80
2022-11-10T10:07:19.186Z,91.10
2022-11-10T10:10:17.484Z,89.70
2022-11-10T10:13:27.597Z,90.30
2022-11-10T10:16:20.227Z,90.80
2022-11-10T10:19:16.007Z,88.80
2022-11-10T10:22:31.727Z,88.80
2022-11-10T10:25:21.936Z,87.60
2022-11-10T10:28:17.468Z,88.30
2022-11-10T10:31:15.998Z,89.20
2022-11-10T10:34:03.325Z,89.00
2022-11-10T10:36:49.991Z,87.60
2022-11-10T10:39:42.782Z,86.50
2022-11-10T10:42:32.604Z,85.30
2022-11-10T10:45:24.120Z,84.40
2022-11-10T10:48:27.619Z,85.20
2022-11-10T10:51:30.055Z,84.40
2022-11-10T10:54:27.742Z,83.70
2022-11-10T10:57:23.130Z,82.90
2022-11-10T11:00:22.037Z,82.50
2022-11-10T11:03:20.465Z,81.70
2022-11-10T11:06:19.256Z,82.00
2022-11-10T11:09:10.878Z,81.60
2022-11-10T11:12:05.707Z,82.70
2022-11-10T11:14:53.828Z,81.00
2022-11-10T11:17:41.144Z,80.30
2022-11-10T11:20:38.933Z,80.50
2022-11-10T11:23:51.187Z,78.70
2022-11-10T11:26:45.991Z,76.90
2022-11-10T11:29:48.942Z,75.10
2022-11-10T11:32:57.410Z,77.70
2022-11-10T11:35:50.912Z,77.40
2022-11-10T11:38:53.314Z,76.40
2022-11-10T11:41:47.550Z,74.00
2022-11-10T11:44:46.774Z,74.50
2022-11-10T11:47:46.566Z,72.30
2022-11-10T11:50:40.841Z,76.90
2022-11-10T11:53:41.708Z,75.50
2022-11-10T11:56:31.874Z,78.90
2022-11-10T11:59:33.170Z,78.80
2022-11-10T12:02:37.076Z,71.50
2022-11-10T12:05:43.100Z,73.70
2022-11-10T12:08:49.328Z,74.60
2022-11-10T12:11:49.114Z,74.50
2022-11-10T12:14:46.878Z,70.20
2022-11-10T12:17:44.658Z,70.40
2022-11-10T12:20:44.627Z,72.20
2022-11-10T12:23:42.557Z,75.00
2022-11-10T12:26:42.722Z,74.50
2022-11-10T12:29:34.646Z,71.80
2022-11-10T12:32:27.568Z,70.10
2022-11-10T12:35:19.394Z,69.40
2022-11-10T12:38:11.908Z,68.40
2022-11-10T12:41:08.928Z,75.90
2022-11-10T12:44:07.505Z,68.80
2022-11-10T12:46:58.791Z,71.20
2022-11-10T12:50:04.816Z,68.30
2022-11-10T12:52:56.279Z,64.80
2022-11-10T12:55:46.788Z,65.70
2022-11-10T12:58:35.130Z,63.60
2022-11-10T13:01:22.169Z,65.40
2022-11-10T13:04:09.325Z,62.20
2022-11-10T13:06:59.063Z,61.20
2022-11-10T13:09:46.054Z,65.40
2022-11-10T13:12:32.977Z,64.70
2022-11-10T13:15:49.753Z,66.80
2022-11-10T13:19:01.579Z,67.50
2022-11-10T13:22:10.363Z,64.00
2022-11-10T13:25:30.848Z,61.20
2022-11-10T13:28:56.070Z,59.50
2022-11-10T13:31:54.982Z,61.70
2022-11-10T13:34:42.514Z,66.40
2022-11-10T13:37:53.060Z,68.50
2022-11-10T13:40:41.162Z,69.30
2022-11-10T13:43:28.809Z,69.60
2022-11-10T13:46:15.640Z,69.30
2022-11-10T13:49:43.842Z,70.30
2022-11-10T13:52:46.902Z,75.50
2022-11-10T13:55:47.802Z,75.30
2022-11-10T13:58:36.813Z,76.00
2022-11-10T14:01:30.538Z,77.60
2022-11-10T14:04:41.396Z,78.10
2022-11-10T14:07:32.174Z,78.30
2022-11-10T14:10:26.958Z,78.80
2022-11-10T14:13:18.178Z,77.20
2022-11-10T14:16:12.397Z,75.40
2022-11-10T14:19:04.206Z,76.00
2022-11-10T14:21:58.229Z,76.80
2022-11-10T14:24:54.566Z,76.90
2022-11-10T14:27:42.301Z,78.70
2022-11-10T14:30:32.957Z,80.10
2022-11-10T14:33:20.125Z,80.90
2022-11-10T14:36:09.142Z,82.30
2022-11-10T14:38:58.592Z,79.90
2022-11-10T14:41:48.130Z,80.90
2022-11-10T14:44:35.869Z,81.90
2022-11-10T14:47:27.819Z,82.70
2022-11-10T14:50:21.067Z,82.80
2022-11-10T14:53:14.805Z,82.50
2022-11-10T14:56:05.484Z,82.60
2022-11-10T14:58:52.908Z,83.10
2022-11-10T15:01:44.566Z,84.00
2022-11-10T15:04:34.301Z,84.50
2022-11-10T15:07:21.053Z,84.40
2022-11-10T15:10:15.086Z,84.70
2022-11-10T15:13:05.714Z,84.70
2022-11-10T15:15:53.659Z,84.90
2022-11-10T15:18:40.785Z,85.10
2022-11-10T15:21:33.942Z,85.00
2022-11-10T15:24:21.113Z,85.60
2022-11-10T15:27:14.466Z,84.40
2022-11-10T15:30:04.547Z,84.70
2022-11-10T15:32:51.859Z,84.80
2022-11-10T15:35:38.913Z,83.20
2022-11-10T15:38:31.627Z,83.00
2022-11-10T15:41:27.416Z,80.50
2022-11-10T15:44:21.089Z,79.00
2022-11-10T15:47:13.492Z,77.70
2022-11-10T15:50:02.174Z,76.80
2022-11-10T15:52:48.795Z,76.00
2022-11-10T15:55:35.622Z,75.40
2022-11-10T15:58:25.188Z,75.20
2022-11-10T16:01:13.448Z,74.30
2022-11-10T16:04:01.930Z,73.70
2022-11-10T16:06:48.747Z,73.30
2022-11-10T16:09:35.572Z,73.00
2022-11-10T16:12:24.398Z,72.90
2022-11-10T16:15:17.415Z,72.70
2022-11-10T16:18:04.463Z,72.30
2022-11-10T16:20:53.975Z,71.70
2022-11-10T16:23:40.954Z,71.80
2022-11-10T16:26:28.415Z,71.90
2022-11-10T16:29:18.980Z,71.50
2022-11-10T16:32:07.276Z,71.80
2022-11-10T16:34:53.917Z,70.90
2022-11-10T16:37:44.098Z,70.80
2022-11-10T16:40:31.403Z,70.80
2022-11-10T16:43:18.920Z,70.50
2022-11-10T16:46:14.690Z,70.40
2022-11-10T16:49:04.464Z,70.20
2022-11-10T16:51:51.553Z,70.60
2022-11-10T16:54:40.095Z,71.40
2022-11-10T16:57:26.970Z,72.50
2022-11-10T17:00:15.199Z,73.30
2022-11-10T17:03:05.917Z,73.80
2022-11-10T17:05:52.818Z,74.50
2022-11-10T17:08:40.599Z,75.20
2022-11-10T17:11:28.841Z,75.20
2022-11-10T17:14:16.675Z,74.60
2022-11-10T17:17:03.981Z,74.50
2022-11-10T17:19:51.975Z,74.00
2022-11-10T17:22:38.765Z,73.90
2022-11-10T17:25:31.330Z,73.80
2022-11-10T17:28:20.227Z,72.70
2022-11-10T17:31:07.539Z,72.20
2022-11-10T17:33:54.855Z,71.70
2022-11-10T17:36:41.662Z,71.60
2022-11-10T17:39:28.571Z,72.60
2022-11-10T17:42:15.766Z,72.20
2022-11-10T17:45:03.894Z,71.90
2022-11-10T17:47:51.277Z,71.30
2022-11-10T17:50:39.537Z,70.50
2022-11-10T17:53:29.054Z,70.70
2022-11-10T17:56:15.749Z,71.20
2022-11-10T17:59:02.497Z,71.80
2022-11-10T18:01:51.108Z,72.20
2022-11-10T18:04:38.204Z,70.20
2022-11-10T18:07:25.176Z,70.40
2022-11-10T18:10:14.495Z,70.00
2022-11-10T18:13:01.110Z,70.40
2022-11-10T18:15:49.257Z,70.00
2022-11-10T18:18:38.526Z,69.50
2022-11-10T18:21:25.553Z,69.90
2022-11-10T18:24:12.443Z,69.90
2022-11-10T18:26:59.803Z,70.50
2022-11-10T18:29:47.336Z,70.80
2022-11-10T18:32:34.054Z,71.10
2022-11-10T18:35:22.547Z,72.00
2022-11-10T18:38:12.612Z,71.10
2022-11-10T18:41:24.851Z,70.40
2022-11-10T18:44:11.475Z,70.90
2022-11-10T18:46:58.208Z,70.60
2022-11-10T18:49:45.171Z,70.50
2022-11-10T18:52:34.066Z,71.00
2022-11-10T18:55:21.552Z,69.80
2022-11-10T18:58:08.634Z,69.40
2022-11-10T19:01:03.158Z,69.80
2022-11-10T19:03:50.213Z,69.70
2022-11-10T19:06:37.237Z,69.60
2022-11-10T19:09:25.760Z,70.40
2022-11-10T19:12:12.958Z,70.30
2022-11-10T19:14:59.718Z,69.80
2022-11-10T19:17:46.348Z,70.00
2022-11-10T19:20:35.537Z,70.50
2022-11-10T19:23:22.879Z,71.10
2022-11-10T19:26:16.754Z,71.60
2022-11-10T19:29:07.916Z,70.70
2022-11-10T19:31:54.898Z,70.60
2022-11-10T19:34:42.261Z,71.10
2022-11-10T19:37:33.498Z,70.80
2022-11-10T19:40:21.870Z,70.20
2022-11-10T19:43:09.796Z,70.30
2022-11-10T19:45:56.872Z,70.50
2022-11-10T19:48:43.767Z,70.50
2022-11-10T19:51:30.335Z,70.60
2022-11-10T19:54:17.157Z,70.10
2022-11-10T19:57:03.788Z,70.00
2022-11-10T19:59:52.157Z,69.70
2022-11-10T20:02:45.176Z,70.10
2022-11-10T20:05:32.690Z,71.20
2022-11-10T20:08:19.507Z,71.90
2022-11-10T20:11:09.285Z,71.70
2022-11-10T20:13:59.162Z,71.10
2022-11-10T20:16:47.620Z,70.60
2022-11-10T20:19:40.787Z,70.60
2022-11-10T20:22:28.197Z,70.60
2022-11-10T20:25:15.328Z,71.40
2022-11-10T20:28:05.200Z,71.00
2022-11-10T20:30:51.823Z,71.10
2022-11-10T20:33:40.131Z,70.80
2022-11-10T20:36:29.102Z,70.70
2022-11-10T20:39:16.179Z,73.30
2022-11-10T20:42:02.951Z,71.30
2022-11-10T20:44:49.952Z,71.20
2022-11-10T20:47:37.115Z,70.50
2022-11-10T20:50:25.610Z,71.30
2022-11-10T20:53:12.433Z,70.20
2022-11-10T20:56:01.018Z,70.00
2022-11-10T20:58:47.697Z,70.10
2022-11-10T21:01:34.709Z,70.80
2022-11-10T21:04:21.866Z,71.60
2022-11-10T21:07:10.119Z,72.00
2022-11-10T21:09:56.940Z,73.00
2022-11-10T21:12:52.769Z,73.50
2022-11-10T21:15:41.032Z,73.70
2022-11-10T21:18:30.383Z,73.70
2022-11-10T21:21:22.630Z,73.70
2022-11-10T21:24:12.476Z,73.30
2022-11-10T21:27:00.171Z,74.40
2022-11-10T21:29:47.254Z,74.10
2022-11-10T21:32:34.358Z,72.50
2022-11-10T21:35:21.393Z,71.80
2022-11-10T21:38:09.124Z,72.00
2022-11-10T21:40:58.788Z,72.50
2022-11-10T21:43:45.318Z,71.00
2022-11-10T21:46:32.115Z,70.70
2022-11-10T21:49:19.130Z,71.20
2022-11-10T21:52:06.148Z,72.40
2022-11-10T21:54:53.806Z,73.00
2022-11-10T21:57:42.140Z,73.70
2022-11-10T22:00:29.302Z,73.40
2022-11-10T22:03:16.386Z,74.00
2022-11-10T22:06:05.350Z,73.40
2022-11-10T22:08:52.864Z,73.40
2022-11-10T22:11:56.938Z,74.30
2022-11-10T22:15:02.658Z,73.80
2022-11-10T22:18:07.097Z,73.20
2022-11-10T22:20:53.967Z,73.70
2022-11-10T22:23:58.073Z,72.50
2022-11-10T22:26:44.758Z,72.60
2022-11-10T22:29:33.390Z,72.10
2022-11-10T22:32:21.558Z,72.20
2022-11-10T22:35:29.473Z,73.00
2022-11-10T22:38:16.304Z,74.50
2022-11-10T22:41:17.367Z,75.70
2022-11-10T22:44:07.895Z,75.20
2022-11-10T22:46:55.151Z,75.90
2022-11-10T22:49:43.126Z,76.70
2022-11-10T22:52:30.124Z,77.30
2022-11-10T22:55:16.975Z,77.10
2022-11-10T22:58:03.910Z,75.90
2022-11-10T23:00:50.928Z,75.60
2022-11-10T23:03:39.422Z,75.30
2022-11-10T23:06:27.909Z,74.80
2022-11-10T23:09:14.926Z,75.30
2022-11-10T23:12:02.031Z,75.50
2022-11-10T23:14:49.391Z,73.70
2022-11-10T23:17:36.256Z,73.00
2022-11-10T23:20:22.986Z,72.60
2022-11-10T23:23:11.398Z,72.80
2022-11-10T23:25:59.527Z,72.20
2022-11-10T23:28:46.671Z,71.60
2022-11-10T23:31:33.287Z,71.60
2022-11-10T23:34:20.268Z,71.40
2022-11-10T23:37:07.162Z,72.80
2022-11-10T23:39:55.445Z,72.40
2022-11-10T23:42:42.347Z,72.80
2022-11-10T23:45:52.705Z,72.60
2022-11-10T23:48:37.286Z,73.70
2022-11-10T23:51:25.477Z,74.00
2022-11-10T23:54:12.125Z,74.60
2022-11-10T23:57:00.554Z,74.70
2022-11-10T23:59:47.759Z,73.50
